createdAt,value
2022-10-23T00:04:19.549Z,964.89
2022-10-23T00:09:21.347Z,964.88
2022-10-23T00:14:23.517Z,964.86
2022-10-23T00:19:24.850Z,964.91
2022-10-23T00:24:26.046Z,964.96
2022-10-23T00:29:27.526Z,964.93
2022-10-23T00:34:28.704Z,964.97
2022-10-23T00:39:30.581Z,964.93
2022-10-23T00:44:32.775Z,965
2022-10-23T00:49:34.652Z,964.96
2022-10-23T00:54:36.208Z,964.87
2022-10-23T00:59:37.988Z,964.95
2022-10-23T01:04:39.303Z,964.89
2022-10-23T01:09:40.908Z,964.86
2022-10-23T01:14:42.880Z,964.75
2022-10-23T01:24:46.226Z,964.63
2022-10-23T01:29:47.947Z,964.57
2022-10-23T01:34:49.163Z,964.63
2022-10-23T01:39:51.332Z,964.69
2022-10-23T01:44:53.378Z,964.7
2022-10-23T01:49:55.119Z,964.66
2022-10-23T01:54:57.246Z,964.61
2022-10-23T01:59:59.278Z,964.6
2022-10-23T02:05:01.357Z,964.49
2022-10-23T02:10:02.688Z,964.41
2022-10-23T02:15:04.578Z,964.37
2022-10-23T02:20:06.420Z,964.21
2022-10-23T02:25:08.017Z,964.13
2022-10-23T02:30:09.515Z,964.14
2022-10-23T02:35:11.598Z,964.11
2022-10-23T02:40:12.680Z,964.16
2022-10-23T02:45:14.012Z,964.11
2022-10-23T02:50:16.053Z,964.19
2022-10-23T02:55:17.528Z,964.1
2022-10-23T03:00:19.500Z,964.04
2022-10-23T03:05:21.090Z,963.98
2022-10-23T03:10:22.347Z,963.9
2022-10-23T03:15:24.390Z,963.89
2022-10-23T03:20:25.717Z,963.97
2022-10-23T03:25:27.689Z,963.94
2022-10-23T03:30:28.976Z,963.88
2022-10-23T03:35:31.105Z,963.86
2022-10-23T03:40:32.632Z,963.78
2022-10-23T03:45:34.435Z,963.86
2022-10-23T03:50:36.098Z,963.92
2022-10-23T03:55:38.254Z,963.88
2022-10-23T04:00:40.029Z,963.91
2022-10-23T04:05:41.785Z,963.85
2022-10-23T04:10:43.909Z,963.85
2022-10-23T04:15:45.616Z,963.77
2022-10-23T04:20:47.202Z,963.81
2022-10-23T04:25:49.205Z,963.76
2022-10-23T04:30:51.363Z,963.72
2022-10-23T04:35:52.817Z,963.77
2022-10-23T04:40:54.982Z,963.78
2022-10-23T04:45:57.108Z,963.89
2022-10-23T04:50:58.993Z,963.83
2022-10-23T04:56:00.915Z,963.73
2022-10-23T05:01:02.490Z,963.75
2022-10-23T05:06:03.514Z,963.71
2022-10-23T05:11:04.829Z,963.64
2022-10-23T05:16:06.368Z,963.51
2022-10-23T05:21:08.097Z,963.4
2022-10-23T05:26:09.773Z,963.41
2022-10-23T05:31:11.186Z,963.43
2022-10-23T05:36:12.489Z,963.57
2022-10-23T05:41:13.782Z,963.5
2022-10-23T05:46:15.626Z,963.46
2022-10-23T05:51:17.534Z,963.51
2022-10-23T05:56:19.303Z,963.58
2022-10-23T06:01:21.687Z,963.58
2022-10-23T06:06:22.912Z,963.53
2022-10-23T06:11:24.149Z,963.52
2022-10-23T06:16:25.721Z,963.54
2022-10-23T06:21:26.942Z,963.59
2022-10-23T06:26:28.829Z,963.66
2022-10-23T06:31:30.842Z,963.71
2022-10-23T06:36:32.859Z,963.67
2022-10-23T06:41:34.449Z,963.6
2022-10-23T07:01:41.176Z,963.53
2022-10-23T07:06:42.595Z,963.52
2022-10-23T07:11:44.494Z,963.53
2022-10-23T07:16:46.371Z,963.61
2022-10-23T07:41:54.674Z,963.44
2022-10-23T07:46:56.108Z,963.51
2022-10-23T08:07:03.825Z,963.42
2022-10-23T08:12:05.271Z,963.39
2022-10-23T08:17:07.339Z,963.33
2022-10-23T08:22:09.400Z,963.4
2022-10-23T08:27:11.422Z,963.32
2022-10-23T08:32:13.347Z,963.3
2022-10-23T08:37:14.519Z,963.31
2022-10-23T08:42:16.372Z,963.37
2022-10-23T08:47:18.565Z,963.34
2022-10-23T08:52:19.688Z,963.3
2022-10-23T08:57:21.830Z,963.26
2022-10-23T09:02:23.472Z,963.23
2022-10-23T09:07:24.511Z,963.14
2022-10-23T09:12:32.660Z,963.11
2022-10-23T09:17:34.365Z,962.98
2022-10-23T09:22:35.670Z,962.9
2022-10-23T09:27:36.882Z,962.82
2022-10-23T09:32:38.272Z,962.89
2022-10-23T09:37:40.473Z,962.79
2022-10-23T09:42:42.302Z,962.84
2022-10-23T09:47:44.524Z,962.83
2022-10-23T09:52:46.102Z,962.73
2022-10-23T09:57:48.157Z,962.72
2022-10-23T10:02:49.318Z,962.65
2022-10-23T10:07:50.746Z,962.59
2022-10-23T10:12:52.843Z,962.57
2022-10-23T10:17:54.119Z,962.52
2022-10-23T10:22:56.026Z,962.58
2022-10-23T10:27:57.807Z,962.56
2022-10-23T10:32:59.841Z,962.53
2022-10-23T10:38:01.726Z,962.44
2022-10-23T10:43:03.591Z,962.36
2022-10-23T10:48:05.168Z,962.31
2022-10-23T10:53:07.107Z,962.33
2022-10-23T10:58:09.199Z,962.19
2022-10-23T11:03:10.454Z,962.02
2022-10-23T11:08:12.574Z,961.93
2022-10-23T11:13:14.539Z,961.86
2022-10-23T11:18:16.048Z,961.8
2022-10-23T11:23:18.158Z,961.7
2022-10-23T11:28:19.605Z,961.68
2022-10-23T11:33:21.567Z,961.66
2022-10-23T11:38:23.181Z,961.61
2022-10-23T11:43:25.234Z,961.6
2022-10-23T11:48:26.815Z,961.57
2022-10-23T11:53:28.972Z,961.49
2022-10-23T11:58:30.766Z,961.47
2022-10-23T12:03:32.254Z,961.26
2022-10-23T12:08:33.386Z,961.31
2022-10-23T12:13:35.538Z,961.33
2022-10-23T12:18:36.729Z,961.23
2022-10-23T12:23:38.078Z,961.27
2022-10-23T12:28:40.106Z,961.12
2022-10-23T12:33:41.993Z,961.08
2022-10-23T12:38:43.890Z,961.07
2022-10-23T12:43:45.816Z,960.94
2022-10-23T12:48:47.946Z,960.81
2022-10-23T12:53:49.899Z,960.78
2022-10-23T12:58:51.338Z,960.74
2022-10-23T13:03:52.783Z,960.71
2022-10-23T13:08:54.802Z,960.76
2022-10-23T13:13:56.981Z,960.82
2022-10-23T13:18:58.136Z,960.69
2022-10-23T13:23:59.674Z,960.62
2022-10-23T13:29:03.772Z,960.61
2022-10-23T13:34:03.280Z,960.6
2022-10-23T13:39:04.899Z,960.49
2022-10-23T13:44:06.533Z,960.52
2022-10-23T13:49:08.455Z,960.52
2022-10-23T13:54:10.199Z,960.42
2022-10-23T13:59:11.743Z,960.46
2022-10-23T14:04:13.868Z,960.44
2022-10-23T14:09:15.101Z,960.43
2022-10-23T14:14:16.865Z,960.39
2022-10-23T14:19:18.082Z,960.45
2022-10-23T14:24:19.534Z,960.45
2022-10-23T14:29:24.241Z,960.44
2022-10-23T14:34:23.165Z,960.34
2022-10-23T14:39:24.573Z,960.26
2022-10-23T14:44:25.898Z,960.21
2022-10-23T14:49:27.184Z,960.2
2022-10-23T14:54:28.433Z,960.17
2022-10-23T14:59:30.164Z,960.19
2022-10-23T15:04:37.283Z,960.12
2022-10-23T15:09:33.517Z,960.12
2022-10-23T15:14:34.887Z,960.13
2022-10-23T15:19:36.935Z,960.15
2022-10-23T15:24:38.533Z,960.14
2022-10-23T15:29:40.482Z,960.05
2022-10-23T15:34:42.066Z,960.08
2022-10-23T15:39:44.153Z,960.03
2022-10-23T15:44:45.826Z,960.03
2022-10-23T15:49:47.815Z,959.94
2022-10-23T15:54:49.083Z,959.91
2022-10-23T15:59:50.247Z,959.92
2022-10-23T16:04:52.117Z,959.95
2022-10-23T16:09:54.251Z,959.86
2022-10-23T16:14:55.502Z,959.83
2022-10-23T16:19:56.826Z,959.87
2022-10-23T16:24:58.224Z,959.83
2022-10-23T16:29:59.636Z,959.8
2022-10-23T16:35:00.874Z,959.79
2022-10-23T16:40:02.914Z,959.82
2022-10-23T16:45:09.480Z,959.86
2022-10-23T16:50:06.426Z,959.72
2022-10-23T16:55:13.568Z,959.78
2022-10-23T17:00:20.332Z,959.9
2022-10-23T17:05:11.623Z,959.91
2022-10-23T17:10:13.159Z,959.81
2022-10-23T17:15:15.055Z,959.89
2022-10-23T17:20:16.529Z,960.02
2022-10-23T17:25:17.920Z,960.06
2022-10-23T17:30:19.974Z,960.17
2022-10-23T17:35:22.088Z,960.21
2022-10-23T17:40:25.115Z,960.16
2022-10-23T17:45:25.645Z,960.29
2022-10-23T17:50:27.236Z,960.4
2022-10-23T17:55:29.200Z,960.14
2022-10-23T18:00:30.986Z,960.27
2022-10-23T18:05:32.630Z,959.98
2022-10-23T18:10:33.997Z,960.53
2022-10-23T18:15:36.140Z,960.03
2022-10-23T18:20:42.923Z,960.75
2022-10-23T18:25:39.720Z,960.24
2022-10-23T18:30:41.026Z,960.22
2022-10-23T18:35:42.760Z,960.22
2022-10-23T18:40:44.392Z,960.35
2022-10-23T18:45:46.250Z,960.16
2022-10-23T18:50:48.369Z,960.19
2022-10-23T18:55:50.140Z,960.2
2022-10-23T19:00:52.193Z,960.17
2022-10-23T19:05:53.791Z,960.07
2022-10-23T19:10:55.218Z,960.12
2022-10-23T19:15:56.486Z,960.22
2022-10-23T19:20:58.295Z,960.23
2022-10-23T19:25:59.925Z,960.27
2022-10-23T19:31:01.639Z,960.25
2022-10-23T19:36:05.108Z,960.27
2022-10-23T19:41:05.527Z,960.25
2022-10-23T19:46:09.169Z,960.35
2022-10-23T19:51:09.759Z,960.41
2022-10-23T19:56:11.052Z,960.33
2022-10-23T20:01:13.450Z,960.31
2022-10-23T20:06:14.909Z,960.34
2022-10-23T20:11:21.274Z,960.33
2022-10-23T20:16:17.512Z,960.32
2022-10-23T20:21:19.622Z,960.22
2022-10-23T20:26:21.029Z,960.18
2022-10-23T20:31:22.968Z,960.17
2022-10-23T20:36:24.859Z,960.29
2022-10-23T20:41:26.182Z,960.67
2022-10-23T20:46:27.592Z,960.93
2022-10-23T20:51:29.706Z,961.29
2022-10-23T20:56:30.902Z,961.42
2022-10-23T21:01:32.770Z,961.72
2022-10-23T22:16:58.046Z,962.5
2022-10-23T22:21:59.551Z,962.68
2022-10-23T22:27:00.945Z,962.68
2022-10-23T22:32:02.829Z,962.8
2022-10-23T22:37:04.100Z,962.86
2022-10-23T22:42:06.047Z,962.95
2022-10-23T22:47:07.386Z,963
2022-10-23T22:52:09.226Z,963
2022-10-23T22:57:11.394Z,963.01
2022-10-23T23:02:13.447Z,963.02
2022-10-23T23:07:15.553Z,963.13
2022-10-23T23:12:17.163Z,963.14
2022-10-23T23:17:19.239Z,963.11
2022-10-23T23:22:20.774Z,963.15
2022-10-23T23:27:22.241Z,963.18
2022-10-23T23:32:24.463Z,963.23
2022-10-23T23:37:25.638Z,963.16
2022-10-23T23:42:27.253Z,963.17
2022-10-23T23:47:29.415Z,963.24
2022-10-23T23:52:30.647Z,963.19
2022-10-23T23:57:32.430Z,963.28
